<?xml version="1.0" encoding="UTF-8" standalone="no" ?>
<gpx xmlns="http://www.topografix.com/GPX/1/1" xmlns:xsi="http://www.w3.org/2001/XMLSchema-instance" xsi:schemaLocation="http://www.topografix.com/GPX/1/1 http://www.topografix.com/GPX/1/1/gpx.xsd" version="1.1" creator="VisuGPX - https://www.visugpx.com">
  <metadata>
    <name>Mervent Montford</name>
  </metadata>
  <trk>
    <name><![CDATA[10297364-Mervent Montford2]]></name>
    <extensions>
      <line xmlns="http://www.topografix.com/GPX/gpx_style/0/2">
        <color>0000FF</color>
        <width>4</width>
      </line>
    </extensions>
    <trkseg>
      <trkpt lat="46.54203" lon="-0.78109">
        <ele>91</ele>
        <time>2021-10-29T06:56:56Z</time>
      </trkpt>
      <trkpt lat="46.54231" lon="-0.78105">
        <ele>84</ele>
        <time>2021-10-29T06:57:34Z</time>
      </trkpt>
      <trkpt lat="46.54239" lon="-0.78098">
        <ele>83</ele>
        <time>2021-10-29T06:57:46Z</time>
      </trkpt>
      <trkpt lat="46.54245" lon="-0.78097">
        <ele>81</ele>
        <time>2021-10-29T06:57:54Z</time>
      </trkpt>
      <trkpt lat="46.54247" lon="-0.7812">
        <ele>81</ele>
        <time>2021-10-29T06:58:15Z</time>
      </trkpt>
      <trkpt lat="46.54259" lon="-0.7812">
        <ele>76</ele>
        <time>2021-10-29T06:58:31Z</time>
      </trkpt>
      <trkpt lat="46.54262" lon="-0.78097">
        <ele>75</ele>
        <time>2021-10-29T06:58:53Z</time>
      </trkpt>
      <trkpt lat="46.5427" lon="-0.78082">
        <ele>71</ele>
        <time>2021-10-29T06:59:10Z</time>
      </trkpt>
      <trkpt lat="46.54279" lon="-0.78072">
        <ele>68</ele>
        <time>2021-10-29T06:59:25Z</time>
      </trkpt>
      <trkpt lat="46.54291" lon="-0.78092">
        <ele>62</ele>
        <time>2021-10-29T06:59:50Z</time>
      </trkpt>
      <trkpt lat="46.54291" lon="-0.78101">
        <ele>62</ele>
        <time>2021-10-29T06:59:58Z</time>
      </trkpt>
      <trkpt lat="46.54319" lon="-0.78115">
        <ele>50</ele>
        <time>2021-10-29T07:00:38Z</time>
      </trkpt>
      <trkpt lat="46.54341" lon="-0.78123">
        <ele>45</ele>
        <time>2021-10-29T07:01:08Z</time>
      </trkpt>
      <trkpt lat="46.54371" lon="-0.78123">
        <ele>48</ele>
        <time>2021-10-29T07:01:48Z</time>
      </trkpt>
      <trkpt lat="46.54406" lon="-0.78119">
        <ele>52</ele>
        <time>2021-10-29T07:02:35Z</time>
      </trkpt>
      <trkpt lat="46.54441" lon="-0.78186">
        <ele>54</ele>
        <time>2021-10-29T07:03:52Z</time>
      </trkpt>
      <trkpt lat="46.5447" lon="-0.78212">
        <ele>54</ele>
        <time>2021-10-29T07:04:37Z</time>
      </trkpt>
      <trkpt lat="46.54515" lon="-0.78213">
        <ele>54</ele>
        <time>2021-10-29T07:05:37Z</time>
      </trkpt>
      <trkpt lat="46.54537" lon="-0.782">
        <ele>54</ele>
        <time>2021-10-29T07:06:09Z</time>
      </trkpt>
      <trkpt lat="46.54549" lon="-0.78189">
        <ele>54</ele>
        <time>2021-10-29T07:06:28Z</time>
      </trkpt>
      <trkpt lat="46.54607" lon="-0.78156">
        <ele>53</ele>
        <time>2021-10-29T07:07:51Z</time>
      </trkpt>
      <trkpt lat="46.54611" lon="-0.78144">
        <ele>54</ele>
        <time>2021-10-29T07:08:03Z</time>
      </trkpt>
      <trkpt lat="46.5461" lon="-0.78107">
        <ele>59</ele>
        <time>2021-10-29T07:08:37Z</time>
      </trkpt>
      <trkpt lat="46.54605" lon="-0.78089">
        <ele>61</ele>
        <time>2021-10-29T07:08:55Z</time>
      </trkpt>
      <trkpt lat="46.54609" lon="-0.78076">
        <ele>63</ele>
        <time>2021-10-29T07:09:08Z</time>
      </trkpt>
      <trkpt lat="46.54608" lon="-0.78061">
        <ele>65</ele>
        <time>2021-10-29T07:09:22Z</time>
      </trkpt>
      <trkpt lat="46.54602" lon="-0.78025">
        <ele>71</ele>
        <time>2021-10-29T07:09:56Z</time>
      </trkpt>
      <trkpt lat="46.54581" lon="-0.77951">
        <ele>79</ele>
        <time>2021-10-29T07:11:10Z</time>
      </trkpt>
      <trkpt lat="46.54572" lon="-0.77843">
        <ele>81</ele>
        <time>2021-10-29T07:12:49Z</time>
      </trkpt>
      <trkpt lat="46.54599" lon="-0.77784">
        <ele>83</ele>
        <time>2021-10-29T07:13:54Z</time>
      </trkpt>
      <trkpt lat="46.5462" lon="-0.77755">
        <ele>84</ele>
        <time>2021-10-29T07:14:33Z</time>
      </trkpt>
      <trkpt lat="46.54629" lon="-0.77727">
        <ele>85</ele>
        <time>2021-10-29T07:15:01Z</time>
      </trkpt>
      <trkpt lat="46.54631" lon="-0.77719">
        <ele>85</ele>
        <time>2021-10-29T07:15:09Z</time>
      </trkpt>
      <trkpt lat="46.54629" lon="-0.77678">
        <ele>86</ele>
        <time>2021-10-29T07:15:47Z</time>
      </trkpt>
      <trkpt lat="46.54631" lon="-0.77664">
        <ele>87</ele>
        <time>2021-10-29T07:16:00Z</time>
      </trkpt>
      <trkpt lat="46.54651" lon="-0.77593">
        <ele>89</ele>
        <time>2021-10-29T07:17:11Z</time>
      </trkpt>
      <trkpt lat="46.54652" lon="-0.77573">
        <ele>89</ele>
        <time>2021-10-29T07:17:29Z</time>
      </trkpt>
      <trkpt lat="46.54648" lon="-0.77563">
        <ele>89</ele>
        <time>2021-10-29T07:17:40Z</time>
      </trkpt>
      <trkpt lat="46.54651" lon="-0.77553">
        <ele>89</ele>
        <time>2021-10-29T07:17:50Z</time>
      </trkpt>
      <trkpt lat="46.54647" lon="-0.77484">
        <ele>90</ele>
        <time>2021-10-29T07:18:53Z</time>
      </trkpt>
      <trkpt lat="46.54642" lon="-0.77468">
        <ele>90</ele>
        <time>2021-10-29T07:19:09Z</time>
      </trkpt>
      <trkpt lat="46.54644" lon="-0.77438">
        <ele>91</ele>
        <time>2021-10-29T07:19:37Z</time>
      </trkpt>
      <trkpt lat="46.54637" lon="-0.77335">
        <ele>91</ele>
        <time>2021-10-29T07:21:12Z</time>
      </trkpt>
      <trkpt lat="46.54588" lon="-0.77246">
        <ele>88</ele>
        <time>2021-10-29T07:22:57Z</time>
      </trkpt>
      <trkpt lat="46.54583" lon="-0.77225">
        <ele>87</ele>
        <time>2021-10-29T07:23:17Z</time>
      </trkpt>
      <trkpt lat="46.54594" lon="-0.77177">
        <ele>83</ele>
        <time>2021-10-29T07:24:03Z</time>
      </trkpt>
      <trkpt lat="46.54597" lon="-0.77152">
        <ele>82</ele>
        <time>2021-10-29T07:24:27Z</time>
      </trkpt>
      <trkpt lat="46.54604" lon="-0.77142">
        <ele>82</ele>
        <time>2021-10-29T07:24:40Z</time>
      </trkpt>
      <trkpt lat="46.54609" lon="-0.77116">
        <ele>81</ele>
        <time>2021-10-29T07:25:05Z</time>
      </trkpt>
      <trkpt lat="46.5461" lon="-0.77104">
        <ele>81</ele>
        <time>2021-10-29T07:25:16Z</time>
      </trkpt>
      <trkpt lat="46.54608" lon="-0.77095">
        <ele>81</ele>
        <time>2021-10-29T07:25:24Z</time>
      </trkpt>
      <trkpt lat="46.54616" lon="-0.77062">
        <ele>80</ele>
        <time>2021-10-29T07:25:56Z</time>
      </trkpt>
      <trkpt lat="46.54622" lon="-0.77009">
        <ele>79</ele>
        <time>2021-10-29T07:26:46Z</time>
      </trkpt>
      <trkpt lat="46.54627" lon="-0.77002">
        <ele>79</ele>
        <time>2021-10-29T07:26:55Z</time>
      </trkpt>
      <trkpt lat="46.54632" lon="-0.76951">
        <ele>79</ele>
        <time>2021-10-29T07:27:42Z</time>
      </trkpt>
      <trkpt lat="46.54631" lon="-0.76933">
        <ele>79</ele>
        <time>2021-10-29T07:27:59Z</time>
      </trkpt>
      <trkpt lat="46.54642" lon="-0.76894">
        <ele>78</ele>
        <time>2021-10-29T07:28:38Z</time>
      </trkpt>
      <trkpt lat="46.54645" lon="-0.76846">
        <ele>77</ele>
        <time>2021-10-29T07:29:22Z</time>
      </trkpt>
      <trkpt lat="46.54656" lon="-0.76817">
        <ele>76</ele>
        <time>2021-10-29T07:29:52Z</time>
      </trkpt>
      <trkpt lat="46.54662" lon="-0.76778">
        <ele>76</ele>
        <time>2021-10-29T07:30:29Z</time>
      </trkpt>
      <trkpt lat="46.54663" lon="-0.76742">
        <ele>76</ele>
        <time>2021-10-29T07:31:02Z</time>
      </trkpt>
      <trkpt lat="46.54672" lon="-0.76706">
        <ele>77</ele>
        <time>2021-10-29T07:31:37Z</time>
      </trkpt>
      <trkpt lat="46.54673" lon="-0.76679">
        <ele>77</ele>
        <time>2021-10-29T07:32:02Z</time>
      </trkpt>
      <trkpt lat="46.54681" lon="-0.76639">
        <ele>78</ele>
        <time>2021-10-29T07:32:40Z</time>
      </trkpt>
      <trkpt lat="46.54681" lon="-0.76625">
        <ele>78</ele>
        <time>2021-10-29T07:32:53Z</time>
      </trkpt>
      <trkpt lat="46.54687" lon="-0.76609">
        <ele>79</ele>
        <time>2021-10-29T07:33:10Z</time>
      </trkpt>
      <trkpt lat="46.54685" lon="-0.76603">
        <ele>79</ele>
        <time>2021-10-29T07:33:16Z</time>
      </trkpt>
      <trkpt lat="46.5469" lon="-0.76586">
        <ele>80</ele>
        <time>2021-10-29T07:33:33Z</time>
      </trkpt>
      <trkpt lat="46.54696" lon="-0.76549">
        <ele>80</ele>
        <time>2021-10-29T07:34:08Z</time>
      </trkpt>
      <trkpt lat="46.54704" lon="-0.76496">
        <ele>81</ele>
        <time>2021-10-29T07:34:57Z</time>
      </trkpt>
      <trkpt lat="46.54704" lon="-0.7648">
        <ele>80</ele>
        <time>2021-10-29T07:35:12Z</time>
      </trkpt>
      <trkpt lat="46.54724" lon="-0.7648">
        <ele>80</ele>
        <time>2021-10-29T07:35:39Z</time>
      </trkpt>
      <trkpt lat="46.54746" lon="-0.76491">
        <ele>81</ele>
        <time>2021-10-29T07:36:10Z</time>
      </trkpt>
      <trkpt lat="46.54762" lon="-0.76501">
        <ele>81</ele>
        <time>2021-10-29T07:36:33Z</time>
      </trkpt>
      <trkpt lat="46.54788" lon="-0.76528">
        <ele>80</ele>
        <time>2021-10-29T07:37:16Z</time>
      </trkpt>
      <trkpt lat="46.54843" lon="-0.7635">
        <ele>84</ele>
        <time>2021-10-29T07:40:15Z</time>
      </trkpt>
      <trkpt lat="46.54852" lon="-0.76312">
        <ele>85</ele>
        <time>2021-10-29T07:40:52Z</time>
      </trkpt>
      <trkpt lat="46.54838" lon="-0.76282">
        <ele>85</ele>
        <time>2021-10-29T07:41:25Z</time>
      </trkpt>
      <trkpt lat="46.54825" lon="-0.76165">
        <ele>84</ele>
        <time>2021-10-29T07:43:14Z</time>
      </trkpt>
      <trkpt lat="46.54825" lon="-0.7613">
        <ele>83</ele>
        <time>2021-10-29T07:43:46Z</time>
      </trkpt>
      <trkpt lat="46.54819" lon="-0.76086">
        <ele>80</ele>
        <time>2021-10-29T07:44:27Z</time>
      </trkpt>
      <trkpt lat="46.54819" lon="-0.76062">
        <ele>79</ele>
        <time>2021-10-29T07:44:49Z</time>
      </trkpt>
      <trkpt lat="46.54807" lon="-0.75987">
        <ele>77</ele>
        <time>2021-10-29T07:46:00Z</time>
      </trkpt>
      <trkpt lat="46.54803" lon="-0.75917">
        <ele>74</ele>
        <time>2021-10-29T07:47:04Z</time>
      </trkpt>
      <trkpt lat="46.54784" lon="-0.75772">
        <ele>72</ele>
        <time>2021-10-29T07:49:20Z</time>
      </trkpt>
      <trkpt lat="46.54773" lon="-0.75776">
        <ele>72</ele>
        <time>2021-10-29T07:49:35Z</time>
      </trkpt>
      <trkpt lat="46.54763" lon="-0.75776">
        <ele>72</ele>
        <time>2021-10-29T07:49:48Z</time>
      </trkpt>
      <trkpt lat="46.54758" lon="-0.75783">
        <ele>72</ele>
        <time>2021-10-29T07:49:57Z</time>
      </trkpt>
      <trkpt lat="46.5476" lon="-0.75779">
        <ele>72</ele>
        <time>2021-10-29T07:50:02Z</time>
      </trkpt>
      <trkpt lat="46.54754" lon="-0.75778">
        <ele>72</ele>
        <time>2021-10-29T07:50:10Z</time>
      </trkpt>
      <trkpt lat="46.54712" lon="-0.75787">
        <ele>72</ele>
        <time>2021-10-29T07:51:07Z</time>
      </trkpt>
      <trkpt lat="46.54697" lon="-0.75793">
        <ele>72</ele>
        <time>2021-10-29T07:51:27Z</time>
      </trkpt>
      <trkpt lat="46.54659" lon="-0.75802">
        <ele>73</ele>
        <time>2021-10-29T07:52:19Z</time>
      </trkpt>
      <trkpt lat="46.54538" lon="-0.75825">
        <ele>79</ele>
        <time>2021-10-29T07:55:02Z</time>
      </trkpt>
      <trkpt lat="46.54517" lon="-0.75831">
        <ele>79</ele>
        <time>2021-10-29T07:55:30Z</time>
      </trkpt>
      <trkpt lat="46.54472" lon="-0.75838">
        <ele>80</ele>
        <time>2021-10-29T07:56:31Z</time>
      </trkpt>
      <trkpt lat="46.54324" lon="-0.75872">
        <ele>81</ele>
        <time>2021-10-29T07:59:51Z</time>
      </trkpt>
      <trkpt lat="46.54266" lon="-0.75882">
        <ele>80</ele>
        <time>2021-10-29T08:01:09Z</time>
      </trkpt>
      <trkpt lat="46.54098" lon="-0.75926">
        <ele>80</ele>
        <time>2021-10-29T08:04:56Z</time>
      </trkpt>
      <trkpt lat="46.5404" lon="-0.75937">
        <ele>78</ele>
        <time>2021-10-29T08:06:14Z</time>
      </trkpt>
      <trkpt lat="46.53996" lon="-0.7595">
        <ele>76</ele>
        <time>2021-10-29T08:07:14Z</time>
      </trkpt>
      <trkpt lat="46.53899" lon="-0.75972">
        <ele>69</ele>
        <time>2021-10-29T08:09:25Z</time>
      </trkpt>
      <trkpt lat="46.53886" lon="-0.75969">
        <ele>68</ele>
        <time>2021-10-29T08:09:43Z</time>
      </trkpt>
      <trkpt lat="46.53856" lon="-0.75945">
        <ele>64</ele>
        <time>2021-10-29T08:10:29Z</time>
      </trkpt>
      <trkpt lat="46.53849" lon="-0.75946">
        <ele>63</ele>
        <time>2021-10-29T08:10:38Z</time>
      </trkpt>
      <trkpt lat="46.53846" lon="-0.75975">
        <ele>64</ele>
        <time>2021-10-29T08:11:05Z</time>
      </trkpt>
      <trkpt lat="46.5385" lon="-0.75999">
        <ele>66</ele>
        <time>2021-10-29T08:11:28Z</time>
      </trkpt>
      <trkpt lat="46.53845" lon="-0.76002">
        <ele>65</ele>
        <time>2021-10-29T08:11:35Z</time>
      </trkpt>
      <trkpt lat="46.53826" lon="-0.75972">
        <ele>63</ele>
        <time>2021-10-29T08:12:12Z</time>
      </trkpt>
      <trkpt lat="46.53793" lon="-0.75901">
        <ele>59</ele>
        <time>2021-10-29T08:13:31Z</time>
      </trkpt>
      <trkpt lat="46.53784" lon="-0.7591">
        <ele>58</ele>
        <time>2021-10-29T08:13:45Z</time>
      </trkpt>
      <trkpt lat="46.53754" lon="-0.75915">
        <ele>56</ele>
        <time>2021-10-29T08:14:26Z</time>
      </trkpt>
      <trkpt lat="46.53734" lon="-0.75923">
        <ele>57</ele>
        <time>2021-10-29T08:14:53Z</time>
      </trkpt>
      <trkpt lat="46.53723" lon="-0.75933">
        <ele>58</ele>
        <time>2021-10-29T08:15:11Z</time>
      </trkpt>
      <trkpt lat="46.53708" lon="-0.75952">
        <ele>59</ele>
        <time>2021-10-29T08:15:37Z</time>
      </trkpt>
      <trkpt lat="46.5369" lon="-0.75956">
        <ele>59</ele>
        <time>2021-10-29T08:16:02Z</time>
      </trkpt>
      <trkpt lat="46.5367" lon="-0.75964">
        <ele>58</ele>
        <time>2021-10-29T08:16:29Z</time>
      </trkpt>
      <trkpt lat="46.53657" lon="-0.75965">
        <ele>58</ele>
        <time>2021-10-29T08:16:47Z</time>
      </trkpt>
      <trkpt lat="46.53642" lon="-0.75981">
        <ele>56</ele>
        <time>2021-10-29T08:17:11Z</time>
      </trkpt>
      <trkpt lat="46.53608" lon="-0.76029">
        <ele>53</ele>
        <time>2021-10-29T08:18:15Z</time>
      </trkpt>
      <trkpt lat="46.53594" lon="-0.76041">
        <ele>51</ele>
        <time>2021-10-29T08:18:36Z</time>
      </trkpt>
      <trkpt lat="46.53578" lon="-0.76072">
        <ele>48</ele>
        <time>2021-10-29T08:19:12Z</time>
      </trkpt>
      <trkpt lat="46.53541" lon="-0.76122">
        <ele>49</ele>
        <time>2021-10-29T08:20:19Z</time>
      </trkpt>
      <trkpt lat="46.53518" lon="-0.76135">
        <ele>51</ele>
        <time>2021-10-29T08:20:52Z</time>
      </trkpt>
      <trkpt lat="46.53477" lon="-0.76121">
        <ele>52</ele>
        <time>2021-10-29T08:21:49Z</time>
      </trkpt>
      <trkpt lat="46.53446" lon="-0.7609">
        <ele>49</ele>
        <time>2021-10-29T08:22:39Z</time>
      </trkpt>
      <trkpt lat="46.53411" lon="-0.7606">
        <ele>49</ele>
        <time>2021-10-29T08:23:33Z</time>
      </trkpt>
      <trkpt lat="46.53381" lon="-0.76052">
        <ele>50</ele>
        <time>2021-10-29T08:24:14Z</time>
      </trkpt>
      <trkpt lat="46.53369" lon="-0.76061">
        <ele>50</ele>
        <time>2021-10-29T08:24:32Z</time>
      </trkpt>
      <trkpt lat="46.5335" lon="-0.76087">
        <ele>51</ele>
        <time>2021-10-29T08:25:06Z</time>
      </trkpt>
      <trkpt lat="46.53331" lon="-0.76105">
        <ele>53</ele>
        <time>2021-10-29T08:25:37Z</time>
      </trkpt>
      <trkpt lat="46.53288" lon="-0.76137">
        <ele>53</ele>
        <time>2021-10-29T08:26:41Z</time>
      </trkpt>
      <trkpt lat="46.53274" lon="-0.76153">
        <ele>52</ele>
        <time>2021-10-29T08:27:05Z</time>
      </trkpt>
      <trkpt lat="46.53263" lon="-0.76181">
        <ele>53</ele>
        <time>2021-10-29T08:27:35Z</time>
      </trkpt>
      <trkpt lat="46.53252" lon="-0.76193">
        <ele>54</ele>
        <time>2021-10-29T08:27:53Z</time>
      </trkpt>
      <trkpt lat="46.53197" lon="-0.76209">
        <ele>59</ele>
        <time>2021-10-29T08:29:08Z</time>
      </trkpt>
      <trkpt lat="46.53182" lon="-0.76209">
        <ele>60</ele>
        <time>2021-10-29T08:29:28Z</time>
      </trkpt>
      <trkpt lat="46.5317" lon="-0.76201">
        <ele>59</ele>
        <time>2021-10-29T08:29:45Z</time>
      </trkpt>
      <trkpt lat="46.53155" lon="-0.76185">
        <ele>57</ele>
        <time>2021-10-29T08:30:10Z</time>
      </trkpt>
      <trkpt lat="46.53154" lon="-0.76165">
        <ele>54</ele>
        <time>2021-10-29T08:30:29Z</time>
      </trkpt>
      <trkpt lat="46.53142" lon="-0.76142">
        <ele>53</ele>
        <time>2021-10-29T08:30:55Z</time>
      </trkpt>
      <trkpt lat="46.5311" lon="-0.76096">
        <ele>48</ele>
        <time>2021-10-29T08:31:55Z</time>
      </trkpt>
      <trkpt lat="46.53095" lon="-0.76081">
        <ele>46</ele>
        <time>2021-10-29T08:32:20Z</time>
      </trkpt>
      <trkpt lat="46.53051" lon="-0.76077">
        <ele>45</ele>
        <time>2021-10-29T08:33:18Z</time>
      </trkpt>
      <trkpt lat="46.53026" lon="-0.76086">
        <ele>45</ele>
        <time>2021-10-29T08:33:53Z</time>
      </trkpt>
      <trkpt lat="46.52966" lon="-0.76118">
        <ele>47</ele>
        <time>2021-10-29T08:35:18Z</time>
      </trkpt>
      <trkpt lat="46.52956" lon="-0.76119">
        <ele>46</ele>
        <time>2021-10-29T08:35:31Z</time>
      </trkpt>
      <trkpt lat="46.52935" lon="-0.76116">
        <ele>44</ele>
        <time>2021-10-29T08:36:00Z</time>
      </trkpt>
      <trkpt lat="46.52912" lon="-0.76104">
        <ele>43</ele>
        <time>2021-10-29T08:36:32Z</time>
      </trkpt>
      <trkpt lat="46.52903" lon="-0.76111">
        <ele>44</ele>
        <time>2021-10-29T08:36:46Z</time>
      </trkpt>
      <trkpt lat="46.52901" lon="-0.76128">
        <ele>45</ele>
        <time>2021-10-29T08:37:02Z</time>
      </trkpt>
      <trkpt lat="46.5291" lon="-0.76159">
        <ele>46</ele>
        <time>2021-10-29T08:37:32Z</time>
      </trkpt>
      <trkpt lat="46.52935" lon="-0.76201">
        <ele>50</ele>
        <time>2021-10-29T08:38:23Z</time>
      </trkpt>
      <trkpt lat="46.52946" lon="-0.7623">
        <ele>53</ele>
        <time>2021-10-29T08:38:54Z</time>
      </trkpt>
      <trkpt lat="46.5295" lon="-0.76295">
        <ele>56</ele>
        <time>2021-10-29T08:39:54Z</time>
      </trkpt>
      <trkpt lat="46.52954" lon="-0.76323">
        <ele>58</ele>
        <time>2021-10-29T08:40:20Z</time>
      </trkpt>
      <trkpt lat="46.5295" lon="-0.76351">
        <ele>59</ele>
        <time>2021-10-29T08:40:46Z</time>
      </trkpt>
      <trkpt lat="46.52939" lon="-0.76382">
        <ele>58</ele>
        <time>2021-10-29T08:41:18Z</time>
      </trkpt>
      <trkpt lat="46.52937" lon="-0.764">
        <ele>59</ele>
        <time>2021-10-29T08:41:35Z</time>
      </trkpt>
      <trkpt lat="46.52919" lon="-0.76434">
        <ele>56</ele>
        <time>2021-10-29T08:42:14Z</time>
      </trkpt>
      <trkpt lat="46.52904" lon="-0.76455">
        <ele>57</ele>
        <time>2021-10-29T08:42:42Z</time>
      </trkpt>
      <trkpt lat="46.52892" lon="-0.765">
        <ele>60</ele>
        <time>2021-10-29T08:43:27Z</time>
      </trkpt>
      <trkpt lat="46.52875" lon="-0.76535">
        <ele>59</ele>
        <time>2021-10-29T08:44:06Z</time>
      </trkpt>
      <trkpt lat="46.5279" lon="-0.76639">
        <ele>52</ele>
        <time>2021-10-29T08:46:34Z</time>
      </trkpt>
      <trkpt lat="46.52776" lon="-0.76653">
        <ele>52</ele>
        <time>2021-10-29T08:46:57Z</time>
      </trkpt>
      <trkpt lat="46.52731" lon="-0.76688">
        <ele>50</ele>
        <time>2021-10-29T08:48:05Z</time>
      </trkpt>
      <trkpt lat="46.5269" lon="-0.7673">
        <ele>48</ele>
        <time>2021-10-29T08:49:12Z</time>
      </trkpt>
      <trkpt lat="46.52675" lon="-0.76764">
        <ele>47</ele>
        <time>2021-10-29T08:49:49Z</time>
      </trkpt>
      <trkpt lat="46.52682" lon="-0.76799">
        <ele>47</ele>
        <time>2021-10-29T08:50:22Z</time>
      </trkpt>
      <trkpt lat="46.527" lon="-0.7682">
        <ele>48</ele>
        <time>2021-10-29T08:50:53Z</time>
      </trkpt>
      <trkpt lat="46.52726" lon="-0.76835">
        <ele>50</ele>
        <time>2021-10-29T08:51:31Z</time>
      </trkpt>
      <trkpt lat="46.52757" lon="-0.76835">
        <ele>50</ele>
        <time>2021-10-29T08:52:12Z</time>
      </trkpt>
      <trkpt lat="46.52765" lon="-0.76828">
        <ele>50</ele>
        <time>2021-10-29T08:52:24Z</time>
      </trkpt>
      <trkpt lat="46.52773" lon="-0.76815">
        <ele>50</ele>
        <time>2021-10-29T08:52:40Z</time>
      </trkpt>
      <trkpt lat="46.52775" lon="-0.76797">
        <ele>52</ele>
        <time>2021-10-29T08:52:57Z</time>
      </trkpt>
      <trkpt lat="46.52795" lon="-0.76766">
        <ele>54</ele>
        <time>2021-10-29T08:53:36Z</time>
      </trkpt>
      <trkpt lat="46.52807" lon="-0.76721">
        <ele>56</ele>
        <time>2021-10-29T08:54:20Z</time>
      </trkpt>
      <trkpt lat="46.52821" lon="-0.76698">
        <ele>58</ele>
        <time>2021-10-29T08:54:49Z</time>
      </trkpt>
      <trkpt lat="46.52851" lon="-0.76686">
        <ele>63</ele>
        <time>2021-10-29T08:55:30Z</time>
      </trkpt>
      <trkpt lat="46.52862" lon="-0.76679">
        <ele>65</ele>
        <time>2021-10-29T08:55:46Z</time>
      </trkpt>
      <trkpt lat="46.52884" lon="-0.76674">
        <ele>69</ele>
        <time>2021-10-29T08:56:16Z</time>
      </trkpt>
      <trkpt lat="46.52898" lon="-0.76675">
        <ele>72</ele>
        <time>2021-10-29T08:56:35Z</time>
      </trkpt>
      <trkpt lat="46.52924" lon="-0.7666">
        <ele>78</ele>
        <time>2021-10-29T08:57:12Z</time>
      </trkpt>
      <trkpt lat="46.52936" lon="-0.76643">
        <ele>79</ele>
        <time>2021-10-29T08:57:34Z</time>
      </trkpt>
      <trkpt lat="46.52944" lon="-0.76596">
        <ele>81</ele>
        <time>2021-10-29T08:58:19Z</time>
      </trkpt>
      <trkpt lat="46.52955" lon="-0.76567">
        <ele>82</ele>
        <time>2021-10-29T08:58:49Z</time>
      </trkpt>
      <trkpt lat="46.52971" lon="-0.76551">
        <ele>85</ele>
        <time>2021-10-29T08:59:15Z</time>
      </trkpt>
      <trkpt lat="46.52993" lon="-0.76543">
        <ele>91</ele>
        <time>2021-10-29T08:59:45Z</time>
      </trkpt>
      <trkpt lat="46.53" lon="-0.76553">
        <ele>93</ele>
        <time>2021-10-29T08:59:58Z</time>
      </trkpt>
      <trkpt lat="46.53029" lon="-0.76578">
        <ele>92</ele>
        <time>2021-10-29T09:00:43Z</time>
      </trkpt>
      <trkpt lat="46.53037" lon="-0.7659">
        <ele>92</ele>
        <time>2021-10-29T09:00:59Z</time>
      </trkpt>
      <trkpt lat="46.53056" lon="-0.76607">
        <ele>90</ele>
        <time>2021-10-29T09:01:29Z</time>
      </trkpt>
      <trkpt lat="46.53073" lon="-0.76632">
        <ele>89</ele>
        <time>2021-10-29T09:02:01Z</time>
      </trkpt>
      <trkpt lat="46.53089" lon="-0.76645">
        <ele>89</ele>
        <time>2021-10-29T09:02:25Z</time>
      </trkpt>
      <trkpt lat="46.53118" lon="-0.76659">
        <ele>87</ele>
        <time>2021-10-29T09:03:06Z</time>
      </trkpt>
      <trkpt lat="46.5314" lon="-0.76677">
        <ele>86</ele>
        <time>2021-10-29T09:03:40Z</time>
      </trkpt>
      <trkpt lat="46.53186" lon="-0.76702">
        <ele>86</ele>
        <time>2021-10-29T09:04:45Z</time>
      </trkpt>
      <trkpt lat="46.53236" lon="-0.76721">
        <ele>89</ele>
        <time>2021-10-29T09:05:54Z</time>
      </trkpt>
      <trkpt lat="46.53294" lon="-0.7675">
        <ele>95</ele>
        <time>2021-10-29T09:07:16Z</time>
      </trkpt>
      <trkpt lat="46.53313" lon="-0.76769">
        <ele>96</ele>
        <time>2021-10-29T09:07:47Z</time>
      </trkpt>
      <trkpt lat="46.53342" lon="-0.76781">
        <ele>98</ele>
        <time>2021-10-29T09:08:27Z</time>
      </trkpt>
      <trkpt lat="46.53376" lon="-0.76812">
        <ele>99</ele>
        <time>2021-10-29T09:09:21Z</time>
      </trkpt>
      <trkpt lat="46.53413" lon="-0.76839">
        <ele>101</ele>
        <time>2021-10-29T09:10:16Z</time>
      </trkpt>
      <trkpt lat="46.53428" lon="-0.76842">
        <ele>102</ele>
        <time>2021-10-29T09:10:36Z</time>
      </trkpt>
      <trkpt lat="46.53443" lon="-0.76849">
        <ele>102</ele>
        <time>2021-10-29T09:10:57Z</time>
      </trkpt>
      <trkpt lat="46.53491" lon="-0.76856">
        <ele>104</ele>
        <time>2021-10-29T09:12:02Z</time>
      </trkpt>
      <trkpt lat="46.5349" lon="-0.76927">
        <ele>102</ele>
        <time>2021-10-29T09:13:07Z</time>
      </trkpt>
      <trkpt lat="46.53482" lon="-0.7702">
        <ele>101</ele>
        <time>2021-10-29T09:14:33Z</time>
      </trkpt>
      <trkpt lat="46.53483" lon="-0.77087">
        <ele>99</ele>
        <time>2021-10-29T09:15:34Z</time>
      </trkpt>
      <trkpt lat="46.53478" lon="-0.77211">
        <ele>91</ele>
        <time>2021-10-29T09:17:28Z</time>
      </trkpt>
      <trkpt lat="46.5351" lon="-0.77293">
        <ele>86</ele>
        <time>2021-10-29T09:18:55Z</time>
      </trkpt>
      <trkpt lat="46.53531" lon="-0.77333">
        <ele>79</ele>
        <time>2021-10-29T09:19:41Z</time>
      </trkpt>
      <trkpt lat="46.53532" lon="-0.77359">
        <ele>76</ele>
        <time>2021-10-29T09:20:05Z</time>
      </trkpt>
      <trkpt lat="46.53527" lon="-0.77383">
        <ele>72</ele>
        <time>2021-10-29T09:20:28Z</time>
      </trkpt>
      <trkpt lat="46.53526" lon="-0.77403">
        <ele>69</ele>
        <time>2021-10-29T09:20:46Z</time>
      </trkpt>
      <trkpt lat="46.53532" lon="-0.77426">
        <ele>66</ele>
        <time>2021-10-29T09:21:09Z</time>
      </trkpt>
      <trkpt lat="46.5356" lon="-0.77433">
        <ele>66</ele>
        <time>2021-10-29T09:21:47Z</time>
      </trkpt>
      <trkpt lat="46.53571" lon="-0.7744">
        <ele>66</ele>
        <time>2021-10-29T09:22:03Z</time>
      </trkpt>
      <trkpt lat="46.53561" lon="-0.77472">
        <ele>62</ele>
        <time>2021-10-29T09:22:35Z</time>
      </trkpt>
      <trkpt lat="46.53548" lon="-0.77486">
        <ele>59</ele>
        <time>2021-10-29T09:22:57Z</time>
      </trkpt>
      <trkpt lat="46.53526" lon="-0.7749">
        <ele>56</ele>
        <time>2021-10-29T09:23:26Z</time>
      </trkpt>
      <trkpt lat="46.53499" lon="-0.7748">
        <ele>56</ele>
        <time>2021-10-29T09:24:04Z</time>
      </trkpt>
      <trkpt lat="46.53468" lon="-0.77454">
        <ele>56</ele>
        <time>2021-10-29T09:24:51Z</time>
      </trkpt>
      <trkpt lat="46.53447" lon="-0.77429">
        <ele>53</ele>
        <time>2021-10-29T09:25:28Z</time>
      </trkpt>
      <trkpt lat="46.53404" lon="-0.77359">
        <ele>54</ele>
        <time>2021-10-29T09:26:54Z</time>
      </trkpt>
      <trkpt lat="46.53388" lon="-0.77357">
        <ele>52</ele>
        <time>2021-10-29T09:27:15Z</time>
      </trkpt>
      <trkpt lat="46.53374" lon="-0.77365">
        <ele>50</ele>
        <time>2021-10-29T09:27:35Z</time>
      </trkpt>
      <trkpt lat="46.53343" lon="-0.77404">
        <ele>50</ele>
        <time>2021-10-29T09:28:30Z</time>
      </trkpt>
      <trkpt lat="46.53347" lon="-0.77423">
        <ele>51</ele>
        <time>2021-10-29T09:28:48Z</time>
      </trkpt>
      <trkpt lat="46.53356" lon="-0.77441">
        <ele>53</ele>
        <time>2021-10-29T09:29:09Z</time>
      </trkpt>
      <trkpt lat="46.53374" lon="-0.77458">
        <ele>53</ele>
        <time>2021-10-29T09:29:37Z</time>
      </trkpt>
      <trkpt lat="46.5339" lon="-0.77497">
        <ele>55</ele>
        <time>2021-10-29T09:30:19Z</time>
      </trkpt>
      <trkpt lat="46.53403" lon="-0.77537">
        <ele>60</ele>
        <time>2021-10-29T09:30:59Z</time>
      </trkpt>
      <trkpt lat="46.53419" lon="-0.77559">
        <ele>63</ele>
        <time>2021-10-29T09:31:29Z</time>
      </trkpt>
      <trkpt lat="46.53452" lon="-0.77587">
        <ele>60</ele>
        <time>2021-10-29T09:32:20Z</time>
      </trkpt>
      <trkpt lat="46.53464" lon="-0.77616">
        <ele>62</ele>
        <time>2021-10-29T09:32:51Z</time>
      </trkpt>
      <trkpt lat="46.53476" lon="-0.77637">
        <ele>61</ele>
        <time>2021-10-29T09:33:16Z</time>
      </trkpt>
      <trkpt lat="46.53518" lon="-0.7768">
        <ele>57</ele>
        <time>2021-10-29T09:34:25Z</time>
      </trkpt>
      <trkpt lat="46.53536" lon="-0.77692">
        <ele>57</ele>
        <time>2021-10-29T09:34:51Z</time>
      </trkpt>
      <trkpt lat="46.53657" lon="-0.77733">
        <ele>52</ele>
        <time>2021-10-29T09:37:37Z</time>
      </trkpt>
      <trkpt lat="46.53702" lon="-0.77745">
        <ele>52</ele>
        <time>2021-10-29T09:38:38Z</time>
      </trkpt>
      <trkpt lat="46.53735" lon="-0.77741">
        <ele>52</ele>
        <time>2021-10-29T09:39:22Z</time>
      </trkpt>
      <trkpt lat="46.53772" lon="-0.77748">
        <ele>52</ele>
        <time>2021-10-29T09:40:12Z</time>
      </trkpt>
      <trkpt lat="46.53797" lon="-0.7775">
        <ele>52</ele>
        <time>2021-10-29T09:40:45Z</time>
      </trkpt>
      <trkpt lat="46.53954" lon="-0.77729">
        <ele>56</ele>
        <time>2021-10-29T09:44:16Z</time>
      </trkpt>
      <trkpt lat="46.53977" lon="-0.77717">
        <ele>56</ele>
        <time>2021-10-29T09:44:48Z</time>
      </trkpt>
      <trkpt lat="46.54012" lon="-0.77709">
        <ele>57</ele>
        <time>2021-10-29T09:45:36Z</time>
      </trkpt>
      <trkpt lat="46.54036" lon="-0.77698">
        <ele>56</ele>
        <time>2021-10-29T09:46:09Z</time>
      </trkpt>
      <trkpt lat="46.54046" lon="-0.77677">
        <ele>51</ele>
        <time>2021-10-29T09:46:33Z</time>
      </trkpt>
      <trkpt lat="46.54054" lon="-0.77642">
        <ele>48</ele>
        <time>2021-10-29T09:47:06Z</time>
      </trkpt>
      <trkpt lat="46.54064" lon="-0.77634">
        <ele>48</ele>
        <time>2021-10-29T09:47:22Z</time>
      </trkpt>
      <trkpt lat="46.54071" lon="-0.77606">
        <ele>46</ele>
        <time>2021-10-29T09:47:49Z</time>
      </trkpt>
      <trkpt lat="46.54085" lon="-0.77587">
        <ele>43</ele>
        <time>2021-10-29T09:48:15Z</time>
      </trkpt>
      <trkpt lat="46.54088" lon="-0.77569">
        <ele>46</ele>
        <time>2021-10-29T09:48:32Z</time>
      </trkpt>
      <trkpt lat="46.54096" lon="-0.77558">
        <ele>47</ele>
        <time>2021-10-29T09:48:46Z</time>
      </trkpt>
      <trkpt lat="46.54109" lon="-0.77557">
        <ele>47</ele>
        <time>2021-10-29T09:49:04Z</time>
      </trkpt>
      <trkpt lat="46.54118" lon="-0.77564">
        <ele>46</ele>
        <time>2021-10-29T09:49:17Z</time>
      </trkpt>
      <trkpt lat="46.54126" lon="-0.77584">
        <ele>44</ele>
        <time>2021-10-29T09:49:38Z</time>
      </trkpt>
      <trkpt lat="46.54137" lon="-0.77597">
        <ele>45</ele>
        <time>2021-10-29T09:49:57Z</time>
      </trkpt>
      <trkpt lat="46.54138" lon="-0.77608">
        <ele>46</ele>
        <time>2021-10-29T09:50:08Z</time>
      </trkpt>
      <trkpt lat="46.54132" lon="-0.77648">
        <ele>51</ele>
        <time>2021-10-29T09:50:45Z</time>
      </trkpt>
      <trkpt lat="46.5413" lon="-0.77685">
        <ele>56</ele>
        <time>2021-10-29T09:51:19Z</time>
      </trkpt>
      <trkpt lat="46.54134" lon="-0.77712">
        <ele>61</ele>
        <time>2021-10-29T09:51:45Z</time>
      </trkpt>
      <trkpt lat="46.54128" lon="-0.77744">
        <ele>67</ele>
        <time>2021-10-29T09:52:15Z</time>
      </trkpt>
      <trkpt lat="46.54087" lon="-0.77827">
        <ele>81</ele>
        <time>2021-10-29T09:53:49Z</time>
      </trkpt>
      <trkpt lat="46.54082" lon="-0.77846">
        <ele>83</ele>
        <time>2021-10-29T09:54:07Z</time>
      </trkpt>
      <trkpt lat="46.54077" lon="-0.77947">
        <ele>91</ele>
        <time>2021-10-29T09:55:40Z</time>
      </trkpt>
      <trkpt lat="46.54079" lon="-0.78059">
        <ele>100</ele>
        <time>2021-10-29T09:57:23Z</time>
      </trkpt>
      <trkpt lat="46.54083" lon="-0.78127">
        <ele>102</ele>
        <time>2021-10-29T09:58:26Z</time>
      </trkpt>
      <trkpt lat="46.54143" lon="-0.78108">
        <ele>100</ele>
        <time>2021-10-29T09:59:48Z</time>
      </trkpt>
      <trkpt lat="46.54186" lon="-0.78106">
        <ele>95</ele>
        <time>2021-10-29T10:00:45Z</time>
      </trkpt>
      <trkpt lat="46.54202" lon="-0.78122">
        <ele>91</ele>
        <time>2021-10-29T10:01:11Z</time>
      </trkpt>
    </trkseg>
  </trk>
</gpx>